Time;durP1;ratioP1;P1;durP2;ratioP2;P2;SDS_P1;SDS_P2;PMS_P1;PMS_P2;Temp;Humidity;BMP_temperature;BMP_pressure;BME280_temperature;BME280_humidity;BME280_pressure;Samples;Min_cycle;Max_cycle;Signal;HPM_P1;HPM_P2
2022/01/28 00:03:36;;;;;;;27.83;5.05;;;;;;;4.44;100.00;101694.47;10017639;29;20087;-72
2022/01/28 00:08:34;;;;;;;18.13;3.25;;;;;;;4.31;100.00;101705.69;10025269;28;20079;-71
2022/01/28 00:13:39;;;;;;;21.92;3.28;;;;;;;4.34;100.00;101699.75;10023446;29;20051;-70
2022/01/28 00:18:55;;;;;;;27.98;4.45;;;;;;;4.27;100.00;101710.81;10057888;28;20106;-70
2022/01/28 00:39:37;;;;;;;27.65;4.50;;;;;;;4.18;100.00;101723.94;10040653;28;20083;-71
2022/01/28 00:44:33;;;;;;;28.95;3.65;;;;;;;4.12;100.00;101724.13;10020219;29;20577;-70
2022/01/28 00:49:30;;;;;;;29.25;4.82;;;;;;;4.10;100.00;101746.00;10031446;28;20080;-71
2022/01/28 00:54:27;;;;;;;17.98;2.72;;;;;;;4.06;100.00;101752.16;10005363;28;20044;-70
2022/01/28 00:59:23;;;;;;;28.92;4.38;;;;;;;3.98;100.00;101756.94;10032499;28;20570;-70
2022/01/28 01:04:20;;;;;;;18.75;3.63;;;;;;;3.93;100.00;101786.63;10027336;29;20135;-70
2022/01/28 01:09:16;;;;;;;25.95;2.83;;;;;;;3.93;100.00;101781.22;10032622;28;20150;-70
2022/01/28 01:14:13;;;;;;;20.55;3.15;;;;;;;3.93;100.00;101792.03;10037982;28;20039;-70
2022/01/28 01:24:08;;;;;;;24.27;3.42;;;;;;;3.96;100.00;101806.97;10032256;28;20145;-71
2022/01/28 01:29:12;;;;;;;27.75;3.03;;;;;;;3.96;100.00;101829.44;10014258;29;20072;-70
2022/01/28 01:39:08;;;;;;;18.67;2.80;;;;;;;3.90;100.00;101849.38;10038086;28;20087;-71
2022/01/28 01:44:10;;;;;;;27.13;4.72;;;;;;;3.97;100.00;101852.72;10027129;28;20115;-71
2022/01/28 01:54:22;;;;;;;25.63;3.25;;;;;;;4.06;100.00;101876.66;10018786;29;20509;-68
2022/01/28 01:59:19;;;;;;;19.90;4.43;;;;;;;4.09;100.00;101884.31;10037830;28;20078;-68
2022/01/28 02:04:16;;;;;;;25.40;3.90;;;;;;;4.10;100.00;101885.94;10030089;29;20150;-70
2022/01/28 02:09:13;;;;;;;27.98;4.25;;;;;;;4.07;100.00;101889.16;10038003;28;20047;-70
2022/01/28 02:14:10;;;;;;;21.23;3.30;;;;;;;4.07;100.00;101902.69;10015285;29;20134;-68
2022/01/28 02:19:06;;;;;;;16.30;3.30;;;;;;;4.05;100.00;101907.53;10029972;28;20107;-68
2022/01/28 02:24:05;;;;;;;19.70;3.58;;;;;;;4.11;100.00;101917.38;10030004;29;20130;-69
2022/01/28 02:29:08;;;;;;;29.42;3.53;;;;;;;4.11;100.00;101928.19;10023046;29;20091;-70
2022/01/28 02:34:06;;;;;;;;;;;;;;;4.13;100.00;101926.03;10026088;28;20495;-70
2022/01/28 02:39:03;;;;;;;21.20;3.80;;;;;;;4.04;100.00;101928.34;10021279;28;20020;-70
2022/01/28 02:44:45;;;;;;;27.38;4.72;;;;;;;3.87;100.00;101955.38;10035255;29;20047;-69
2022/01/28 02:49:33;;;;;;;19.77;2.95;;;;;;;3.73;100.00;101964.84;10024851;28;20075;-68
2022/01/28 02:54:32;;;;;;;27.45;2.88;;;;;;;3.82;100.00;101973.41;10004777;29;20111;-68
2022/01/28 02:59:29;;;;;;;15.70;2.75;;;;;;;3.84;100.00;101966.69;10039471;29;20051;-69
2022/01/28 03:09:48;;;;;;;22.95;4.20;;;;;;;3.94;100.00;101977.69;10032276;28;20052;-69
2022/01/28 03:15:00;;;;;;;24.20;3.83;;;;;;;4.04;100.00;101970.81;10014382;29;20131;-69
2022/01/28 03:20:06;;;;;;;18.25;2.90;;;;;;;4.12;100.00;101978.56;10029785;29;20479;-69
2022/01/28 03:25:03;;;;;;;29.35;4.03;;;;;;;4.18;100.00;101983.00;10037477;28;20051;-68
2022/01/28 03:29:59;;;;;;;23.30;3.40;;;;;;;4.28;100.00;102006.72;10029010;29;20494;-70
2022/01/28 03:34:57;;;;;;;21.90;3.50;;;;;;;4.18;100.00;102020.91;10040800;29;20110;-70
2022/01/28 03:39:54;;;;;;;31.23;3.92;;;;;;;4.00;100.00;102051.69;10024288;28;20052;-69
2022/01/28 03:44:50;;;;;;;21.58;4.38;;;;;;;4.02;100.00;102043.34;10032191;29;20148;-69
2022/01/28 03:49:46;;;;;;;30.67;3.70;;;;;;;3.95;100.00;102060.53;10033236;28;20048;-69
2022/01/28 03:54:43;;;;;;;21.08;4.40;;;;;;;3.86;100.00;102061.97;10019639;29;20055;-69
2022/01/28 03:59:40;;;;;;;19.73;3.50;;;;;;;3.81;100.00;102070.00;10031869;28;20138;-68
2022/01/28 04:15:21;;;;;;;30.08;3.55;;;;;;;3.87;100.00;102101.47;10044273;28;20494;-68
2022/01/28 04:20:18;;;;;;;21.60;3.08;;;;;;;3.90;100.00;102111.84;10010433;28;20056;-68
2022/01/28 04:25:15;;;;;;;24.50;2.97;;;;;;;3.89;100.00;102123.72;10027759;28;20074;-68
2022/01/28 04:30:11;;;;;;;20.45;3.65;;;;;;;3.86;100.00;102137.72;10022008;28;20059;-69
2022/01/28 04:35:08;;;;;;;25.08;5.80;;;;;;;3.83;100.00;102149.03;10027842;28;20100;-69
2022/01/28 04:40:27;;;;;;;23.92;4.18;;;;;;;3.81;100.00;102156.56;10034998;28;20079;-69
2022/01/28 04:45:33;;;;;;;21.15;4.13;;;;;;;3.78;100.00;102151.59;10021163;28;20126;-71
2022/01/28 04:50:43;;;;;;;20.00;3.17;;;;;;;3.77;100.00;102144.56;10016838;28;20048;-71
2022/01/28 05:00:51;;;;;;;27.50;3.95;;;;;;;3.77;100.00;102166.22;10023787;28;20052;-71
2022/01/28 05:16:32;;;;;;;21.10;3.33;;;;;;;3.80;100.00;102187.38;10008317;28;20079;-66
2022/01/28 05:26:53;;;;;;;26.60;3.63;;;;;;;3.85;100.00;102219.94;10021449;29;20127;-67
2022/01/28 05:31:49;;;;;;;22.48;3.10;;;;;;;3.87;100.00;102231.34;10013142;28;20399;-66
2022/01/28 05:36:46;;;;;;;31.63;3.67;;;;;;;3.85;100.00;102238.06;10014497;29;20115;-68
2022/01/28 05:41:43;;;;;;;26.92;3.50;;;;;;;3.79;100.00;102256.09;10017685;28;20131;-68
2022/01/28 05:46:39;;;;;;;26.13;4.10;;;;;;;3.81;100.00;102270.19;10039404;29;20478;-68
2022/01/28 05:51:36;;;;;;;22.27;3.58;;;;;;;3.85;100.00;102275.94;10016148;28;20079;-68
2022/01/28 05:56:33;;;;;;;21.48;3.88;;;;;;;3.87;100.00;102285.47;10017341;29;20075;-67
2022/01/28 06:01:29;;;;;;;24.75;4.00;;;;;;;3.94;100.00;102297.00;10024576;28;20103;-67
2022/01/28 06:06:26;;;;;;;22.60;3.78;;;;;;;3.98;100.00;102298.19;10016804;28;20075;-67
2022/01/28 06:11:24;;;;;;;31.20;4.80;;;;;;;3.98;100.00;102309.03;10019235;28;20047;-67
2022/01/28 06:16:21;;;;;;;19.63;3.10;;;;;;;4.00;100.00;102312.31;10009968;29;20668;-67
2022/01/28 06:21:19;;;;;;;24.25;3.55;;;;;;;4.02;100.00;102316.69;10018598;28;20047;-69
2022/01/28 06:26:15;;;;;;;24.30;3.55;;;;;;;4.04;100.00;102344.31;10024240;28;20642;-69
2022/01/28 06:31:12;;;;;;;17.15;4.25;;;;;;;4.02;100.00;102330.22;10031252;29;20107;-69
2022/01/28 06:36:09;;;;;;;20.23;3.38;;;;;;;4.00;100.00;102339.38;10042466;28;20139;-69
2022/01/28 06:41:05;;;;;;;13.95;2.25;;;;;;;3.97;100.00;102344.47;10029558;28;20127;-69
2022/01/28 06:46:07;;;;;;;24.13;3.90;;;;;;;4.03;100.00;102358.94;10035270;28;20048;-70
2022/01/28 06:51:04;;;;;;;17.05;3.63;;;;;;;4.05;100.00;102373.06;10046447;28;20047;-69
2022/01/28 06:56:01;;;;;;;22.98;3.65;;;;;;;4.04;100.00;102372.25;10039017;28;20070;-69
2022/01/28 07:00:57;;;;;;;26.85;3.47;;;;;;;4.09;100.00;102390.50;10035936;29;20087;-69
2022/01/28 07:05:54;;;;;;;24.75;3.47;;;;;;;4.07;100.00;102406.94;10038152;28;20043;-69
2022/01/28 07:10:50;;;;;;;21.65;3.78;;;;;;;4.05;100.00;102410.94;10020944;29;20478;-69
2022/01/28 07:15:48;;;;;;;27.42;3.88;;;;;;;4.03;100.00;102413.06;10044061;28;20134;-69
2022/01/28 07:20:44;;;;;;;31.90;4.75;;;;;;;3.96;100.00;102416.69;10058839;28;20131;-69
2022/01/28 07:25:42;;;;;;;28.38;3.72;;;;;;;3.86;100.00;102435.38;10047273;28;20078;-69
2022/01/28 07:30:39;;;;;;;22.48;4.15;;;;;;;3.82;100.00;102447.72;10049163;28;20052;-69
2022/01/28 07:35:36;;;;;;;28.60;3.90;;;;;;;3.71;100.00;102459.31;10031045;28;20100;-69
2022/01/28 07:40:33;;;;;;;21.88;3.72;;;;;;;3.70;100.00;102479.31;10028530;28;20127;-69
2022/01/28 07:45:29;;;;;;;24.67;2.58;;;;;;;3.69;100.00;102483.06;10025074;28;20047;-69
2022/01/28 07:50:26;;;;;;;30.52;4.22;;;;;;;3.72;100.00;102486.16;10031321;28;20825;-69
2022/01/28 07:55:22;;;;;;;29.13;4.45;;;;;;;3.66;100.00;102489.75;10027749;28;20049;-69
2022/01/28 08:00:19;;;;;;;34.13;4.95;;;;;;;3.68;100.00;102503.06;10038442;28;20048;-70
2022/01/28 08:05:15;;;;;;;26.40;4.40;;;;;;;3.72;100.00;102515.09;10018814;28;20044;-69
2022/01/28 08:10:16;;;;;;;30.23;4.75;;;;;;;3.65;100.00;102527.88;10043472;29;20581;-69
2022/01/28 08:15:13;;;;;;;38.10;5.45;;;;;;;3.68;100.00;102532.81;10039953;28;20506;-69
2022/01/28 08:20:10;;;;;;;30.05;4.32;;;;;;;3.67;100.00;102552.81;10042997;28;20106;-69
2022/01/28 08:25:07;;;;;;;33.33;4.15;;;;;;;3.75;100.00;102574.16;10030551;28;20071;-69
2022/01/28 08:30:04;;;;;;;26.25;5.18;;;;;;;3.69;100.00;102586.72;10037361;28;20513;-69
2022/01/28 08:35:00;;;;;;;34.50;3.80;;;;;;;3.73;100.00;102592.47;10021644;28;20114;-70
2022/01/28 08:39:57;;;;;;;26.30;3.78;;;;;;;3.75;100.00;102595.78;10028383;28;20056;-69
2022/01/28 08:44:54;;;;;;;26.85;4.18;;;;;;;3.82;100.00;102607.34;10030887;28;20055;-70
2022/01/28 08:49:50;;;;;;;38.55;5.50;;;;;;;3.83;100.00;102609.03;10024834;28;20046;-69
2022/01/28 08:54:48;;;;;;;34.63;4.97;;;;;;;3.89;100.00;102620.81;10020580;29;20039;-69
2022/01/28 08:59:44;;;;;;;25.77;4.03;;;;;;;3.95;100.00;102625.34;10016499;29;20084;-69
2022/01/28 09:04:41;;;;;;;34.78;5.13;;;;;;;4.14;100.00;102636.97;10015274;29;20075;-69
2022/01/28 09:09:47;;;;;;;23.42;4.18;;;;;;;4.25;100.00;102644.34;10024153;28;20099;-68
2022/01/28 09:14:43;;;;;;;36.08;4.80;;;;;;;4.31;100.00;102659.66;10018939;29;20130;-68
2022/01/28 09:19:40;;;;;;;28.60;4.15;;;;;;;4.17;100.00;102672.53;10022709;29;20044;-69
2022/01/28 09:24:36;;;;;;;27.85;4.43;;;;;;;4.26;100.00;102683.06;10019473;28;20550;-69
2022/01/28 09:29:33;;;;;;;32.17;4.70;;;;;;;4.29;100.00;102696.94;10016965;28;20055;-70
2022/01/28 09:34:30;;;;;;;21.70;3.40;;;;;;;4.42;100.00;102710.34;10020352;28;20102;-69
2022/01/28 09:39:29;;;;;;;30.30;4.63;;;;;;;4.47;100.00;102700.72;10021508;29;20133;-70
2022/01/28 09:44:29;;;;;;;30.45;4.30;;;;;;;4.61;100.00;102718.44;10017906;28;20541;-68
2022/01/28 09:49:27;;;;;;;27.50;4.40;;;;;;;4.78;100.00;102740.31;10022722;28;20051;-68
2022/01/28 09:54:24;;;;;;;22.30;3.72;;;;;;;4.97;100.00;102738.41;10022925;28;20082;-67
2022/01/28 09:59:20;;;;;;;31.00;4.95;;;;;;;5.13;100.00;102737.75;10033329;28;20081;-67
2022/01/28 10:04:18;;;;;;;31.13;5.20;;;;;;;5.39;100.00;102735.69;10036209;28;20119;-67
2022/01/28 10:09:18;;;;;;;31.73;5.18;;;;;;;5.75;100.00;102737.34;10038880;28;20510;-67
2022/01/28 10:14:18;;;;;;;23.35;3.47;;;;;;;5.74;100.00;102743.03;10042662;29;20047;-67
2022/01/28 10:19:16;;;;;;;19.77;3.15;;;;;;;6.10;100.00;102742.81;10048738;28;20510;-67
2022/01/28 10:24:24;;;;;;;26.25;4.55;;;;;;;6.43;100.00;102748.63;10033989;29;20127;-67
2022/01/28 10:29:23;;;;;;;25.23;3.17;;;;;;;6.76;100.00;102747.13;10049582;28;20183;-67
2022/01/28 10:34:26;;;;;;;20.27;3.22;;;;;;;6.74;100.00;102744.66;10047290;28;20510;-67
2022/01/28 10:39:24;;;;;;;21.25;3.50;;;;;;;7.02;100.00;102753.88;10043542;28;21069;-68
2022/01/28 10:44:21;;;;;;;19.92;3.38;;;;;;;7.03;100.00;102752.78;10027574;28;20051;-68
2022/01/28 10:49:18;;;;;;;21.55;3.67;;;;;;;6.66;100.00;102755.88;10026923;28;20095;-68
2022/01/28 10:54:17;;;;;;;21.58;3.30;;;;;;;6.51;100.00;102742.84;10019621;29;20055;-68
2022/01/28 10:59:17;;;;;;;16.90;3.33;;;;;;;6.30;100.00;102744.31;10032955;28;20534;-68
2022/01/28 11:04:15;;;;;;;22.70;4.47;;;;;;;6.47;100.00;102758.78;10022454;28;20044;-68
2022/01/28 11:09:15;;;;;;;22.90;3.58;;;;;;;6.38;100.00;102765.66;10023059;29;20147;-67
2022/01/28 11:14:12;;;;;;;26.73;5.10;;;;;;;6.51;100.00;102773.53;10041436;28;20130;-67
2022/01/28 11:19:11;;;;;;;18.42;3.33;;;;;;;6.77;100.00;102770.53;10042812;29;20079;-67
2022/01/28 11:24:31;;;;;;;20.95;3.80;;;;;;;6.87;100.00;102789.75;10045770;29;20695;-67
2022/01/28 11:29:28;;;;;;;18.42;3.33;;;;;;;6.78;100.00;102802.91;10051711;28;20759;-67
2022/01/28 11:34:30;;;;;;;21.77;3.22;;;;;;;6.86;100.00;102799.81;10023436;29;20147;-67
2022/01/28 11:39:32;;;;;;;17.77;2.67;;;;;;;7.28;100.00;102807.66;10013679;29;20052;-67
2022/01/28 11:44:45;;;;;;;15.65;2.33;;;;;;;7.26;100.00;102809.81;10015480;29;20067;-68
2022/01/28 11:49:53;;;;;;;18.27;3.15;;;;;;;7.27;100.00;102816.91;10013510;29;20098;-70
2022/01/28 11:54:49;;;;;;;14.70;2.80;;;;;;;7.21;100.00;102817.88;10012253;28;20043;-67
2022/01/28 11:59:46;;;;;;;15.32;2.80;;;;;;;7.00;100.00;102829.44;10024657;28;20495;-67
2022/01/28 12:04:44;;;;;;;16.88;3.58;;;;;;;7.03;100.00;102831.66;10048912;29;20573;-68
2022/01/28 12:09:52;;;;;;;20.08;3.03;;;;;;;7.25;100.00;102831.84;10051474;28;20143;-67
2022/01/28 12:14:49;;;;;;;23.25;3.05;;;;;;;7.21;100.00;102828.75;10025687;29;20112;-68
2022/01/28 12:19:45;;;;;;;16.98;3.08;;;;;;;7.34;100.00;102828.47;10014810;29;20093;-68
2022/01/28 12:24:42;;;;;;;17.73;2.95;;;;;;;7.53;100.00;102828.25;10018430;28;20086;-68
2022/01/28 12:29:44;;;;;;;16.17;3.47;;;;;;;7.46;100.00;102835.75;10013283;28;20502;-67
2022/01/28 12:34:46;;;;;;;18.85;3.10;;;;;;;7.67;100.00;102821.41;10021750;28;20082;-66
2022/01/28 12:39:50;;;;;;;22.05;3.15;;;;;;;8.07;99.25;102831.31;10006646;29;20060;-65
2022/01/28 12:44:59;;;;;;;22.50;3.45;;;;;;;8.20;99.69;102839.13;10037382;28;20138;-67
2022/01/28 12:50:03;;;;;;;19.35;3.13;;;;;;;8.12;98.29;102838.72;10015542;28;20047;-67
2022/01/28 12:55:00;;;;;;;22.30;4.63;;;;;;;7.94;100.00;102837.13;10054740;29;20083;-67
2022/01/28 12:59:57;;;;;;;17.60;3.47;;;;;;;8.13;100.00;102841.22;10005950;28;20502;-67
2022/01/28 13:05:11;;;;;;;26.02;3.53;;;;;;;8.88;95.98;102838.16;10041021;29;20138;-67
2022/01/28 13:10:08;;;;;;;20.40;3.55;;;;;;;8.56;95.62;102839.69;10008587;29;20055;-67
2022/01/28 13:15:07;;;;;;;21.48;3.90;;;;;;;8.56;100.00;102834.25;10036080;29;20047;-67
2022/01/28 13:20:09;;;;;;;25.02;4.30;;;;;;;8.51;100.00;102836.88;10068633;29;20099;-67
2022/01/28 13:25:18;;;;;;;27.92;4.95;;;;;;;7.95;100.00;102842.28;10022694;29;20482;-67
2022/01/28 13:30:16;;;;;;;31.27;4.13;;;;;;;8.19;100.00;102864.75;10021780;29;20111;-67
2022/01/28 13:35:24;;;;;;;23.00;4.55;;;;;;;8.18;100.00;102859.53;10026091;29;20134;-66
2022/01/28 13:40:26;;;;;;;19.20;3.65;;;;;;;8.42;100.00;102855.59;10009978;28;20067;-67
2022/01/28 13:45:53;;;;;;;35.17;4.18;;;;;;;7.92;100.00;102861.03;10010218;29;20059;-67
2022/01/28 13:50:52;;;;;;;28.15;4.07;;;;;;;7.47;100.00;102859.16;10016046;28;20048;-67
2022/01/28 13:55:51;;;;;;;29.55;3.58;;;;;;;7.25;100.00;102857.13;10014150;28;20047;-67
2022/01/28 14:00:49;;;;;;;23.73;4.13;;;;;;;6.86;100.00;102858.81;10015640;28;20063;-67
2022/01/28 14:06:00;;;;;;;22.65;2.92;;;;;;;6.52;100.00;102859.47;10022210;28;20058;-67
2022/01/28 14:11:30;;;;;;;22.98;3.70;;;;;;;6.37;100.00;102850.13;10031531;28;20048;-67
2022/01/28 14:16:27;;;;;;;29.40;5.05;;;;;;;6.32;100.00;102865.25;10037736;28;20060;-67
2022/01/28 14:21:24;;;;;;;27.08;4.38;;;;;;;6.09;100.00;102874.22;10003634;29;20044;-67
2022/01/28 14:26:20;;;;;;;26.88;3.28;;;;;;;6.27;100.00;102880.63;10031972;28;20047;-67
2022/01/28 14:31:16;;;;;;;27.27;3.60;;;;;;;6.31;100.00;102896.22;10034382;28;20079;-67
2022/01/28 14:36:13;;;;;;;20.00;3.47;;;;;;;6.14;100.00;102889.00;10041233;28;20103;-67
2022/01/28 14:41:29;;;;;;;26.83;3.50;;;;;;;6.05;100.00;102881.19;10033307;29;20054;-67
2022/01/28 14:46:26;;;;;;;32.22;6.78;;;;;;;6.38;100.00;102878.94;10033733;28;20179;-67
2022/01/28 14:51:28;;;;;;;22.55;4.00;;;;;;;6.60;100.00;102876.47;10036283;29;20062;-68
2022/01/28 14:56:25;;;;;;;27.15;4.28;;;;;;;6.28;100.00;102906.72;10053749;28;20055;-66
2022/01/28 15:01:21;;;;;;;24.13;4.05;;;;;;;6.08;100.00;102907.88;10021488;29;20051;-68
2022/01/28 15:06:18;;;;;;;28.08;4.15;;;;;;;5.82;100.00;102910.97;10052698;28;20413;-68
2022/01/28 15:11:23;;;;;;;16.83;3.10;;;;;;;5.85;100.00;102897.78;10039579;29;20063;-68
2022/01/28 15:16:19;;;;;;;32.03;4.13;;;;;;;5.64;100.00;102901.84;10053902;28;20102;-68
2022/01/28 15:21:16;;;;;;;21.42;3.13;;;;;;;5.62;100.00;102903.97;10005228;29;20059;-68
2022/01/28 15:26:12;;;;;;;18.25;3.80;;;;;;;5.49;100.00;102918.53;10051083;28;20087;-68
2022/01/28 15:36:24;;;;;;;23.27;3.05;;;;;;;5.49;100.00;102909.56;10045097;28;20048;-68
2022/01/28 15:41:20;;;;;;;26.73;6.32;;;;;;;5.30;100.00;102913.38;10038210;29;20569;-68
2022/01/28 15:46:17;;;;;;;19.67;3.83;;;;;;;5.20;100.00;102917.47;10051000;28;20047;-68
2022/01/28 15:51:14;;;;;;;23.80;3.45;;;;;;;5.05;100.00;102914.31;10042037;29;20501;-68
2022/01/28 15:56:12;;;;;;;28.40;4.43;;;;;;;5.13;100.00;102916.72;10050850;28;20489;-67
2022/01/28 16:01:09;;;;;;;27.10;4.03;;;;;;;5.06;100.00;102918.69;10040772;28;20079;-67
2022/01/28 16:06:07;;;;;;;24.15;3.13;;;;;;;5.01;100.00;102929.34;10043926;28;20048;-67
2022/01/28 16:21:06;;;;;;;;;;;;;;;5.08;100.00;102938.25;10038633;28;20055;-67
2022/01/28 16:26:03;;;;;;;18.63;3.08;;;;;;;5.17;100.00;102927.94;10051870;28;19981;-67
2022/01/28 16:31:00;;;;;;;24.17;3.05;;;;;;;5.21;100.00;102939.97;10032169;28;20090;-67
2022/01/28 16:35:57;;;;;;;22.42;4.05;;;;;;;5.30;100.00;102932.38;10048399;28;20044;-67
2022/01/28 16:40:53;;;;;;;19.60;2.90;;;;;;;5.27;100.00;102929.06;10027886;28;20051;-68
2022/01/28 16:51:54;;;;;;;22.83;3.05;;;;;;;5.45;100.00;102935.50;10017309;28;20090;-67
2022/01/28 16:56:50;;;;;;;18.85;3.33;;;;;;;5.41;100.00;102934.31;10041452;29;20076;-68
2022/01/28 17:01:47;;;;;;;23.27;3.05;;;;;;;5.56;100.00;102920.34;10022239;29;20095;-68
2022/01/28 17:06:44;;;;;;;16.20;3.03;;;;;;;5.46;100.00;102907.31;10047247;28;20055;-69
2022/01/28 17:17:04;;;;;;;28.70;4.72;;;;;;;5.44;100.00;102906.72;10051981;28;20158;-68
2022/01/28 17:22:04;;;;;;;16.70;3.90;;;;;;;5.51;100.00;102906.63;10038542;28;20104;-68
2022/01/28 17:27:02;;;;;;;18.55;2.92;;;;;;;5.49;100.00;102898.72;10036757;28;20058;-68
2022/01/28 17:32:11;;;;;;;21.88;2.97;;;;;;;5.49;100.00;102898.72;10011555;29;20107;-68
2022/01/28 17:37:13;;;;;;;23.02;3.67;;;;;;;5.54;100.00;102893.41;10036076;28;20060;-68
2022/01/28 17:42:09;;;;;;;26.25;3.08;;;;;;;5.46;100.00;102882.91;10020067;29;20048;-68
2022/01/28 17:47:06;;;;;;;17.35;2.80;;;;;;;5.33;100.00;102885.78;10022149;28;20051;-68
2022/01/28 17:52:03;;;;;;;28.17;2.80;;;;;;;5.36;100.00;102888.88;10036484;29;20638;-68
2022/01/28 17:57:03;;;;;;;22.70;3.58;;;;;;;5.39;100.00;102887.59;10040815;28;20572;-68
2022/01/28 18:02:00;;;;;;;24.77;4.90;;;;;;;5.33;100.00;102883.06;10035241;29;20074;-68
2022/01/28 18:06:57;;;;;;;21.13;3.05;;;;;;;5.41;100.00;102880.06;10044558;28;20087;-69
2022/01/28 18:11:54;;;;;;;22.52;3.85;;;;;;;5.36;100.00;102877.19;10034979;29;20048;-68
2022/01/28 18:16:50;;;;;;;20.38;3.30;;;;;;;5.32;100.00;102881.44;10037654;28;20111;-68
2022/01/28 18:21:49;;;;;;;31.42;4.10;;;;;;;5.41;100.00;102880.88;10034585;29;20422;-69
2022/01/28 18:26:45;;;;;;;22.83;3.45;;;;;;;5.28;100.00;102867.50;10054034;28;20047;-68
2022/01/28 18:31:42;;;;;;;23.55;2.80;;;;;;;5.21;100.00;102859.44;10062104;28;20058;-68
2022/01/28 18:36:39;;;;;;;24.17;4.05;;;;;;;5.22;100.00;102839.41;10056776;29;20170;-68
2022/01/28 18:41:37;;;;;;;34.35;3.40;;;;;;;5.15;100.00;102833.25;10048874;29;20052;-68
2022/01/28 18:46:41;;;;;;;21.60;3.30;;;;;;;5.15;100.00;102827.84;10056253;29;20146;-68
2022/01/28 18:51:38;;;;;;;22.33;3.03;;;;;;;5.15;100.00;102806.13;10015897;29;20116;-68
2022/01/28 18:56:34;;;;;;;25.98;4.72;;;;;;;5.10;100.00;102803.25;10054506;29;20465;-68
2022/01/28 19:01:31;;;;;;;23.13;4.25;;;;;;;5.01;100.00;102799.22;10067684;28;20763;-68
2022/01/28 19:06:28;;;;;;;27.10;4.88;;;;;;;4.91;100.00;102799.78;10031850;28;20067;-68
2022/01/28 19:11:27;;;;;;;26.02;4.40;;;;;;;4.91;100.00;102788.94;10039325;29;20426;-68
2022/01/28 19:16:24;;;;;;;19.58;4.22;;;;;;;4.85;100.00;102776.31;10040311;28;20086;-68
2022/01/28 19:21:20;;;;;;;30.67;4.18;;;;;;;4.75;100.00;102765.97;10040798;28;20055;-68
2022/01/28 19:26:17;;;;;;;27.75;3.40;;;;;;;4.69;100.00;102755.22;10046914;28;20503;-69
2022/01/28 19:31:13;;;;;;;26.05;3.70;;;;;;;4.68;100.00;102759.81;10040266;29;20131;-68
2022/01/28 19:36:11;;;;;;;22.45;4.18;;;;;;;4.58;100.00;102751.41;10039124;28;20069;-67
2022/01/28 19:41:08;;;;;;;22.23;4.10;;;;;;;4.54;100.00;102742.09;10052158;29;20486;-67
2022/01/28 19:46:06;;;;;;;29.35;6.00;;;;;;;4.49;100.00;102731.13;10049352;28;20099;-67
2022/01/28 19:51:04;;;;;;;25.15;3.78;;;;;;;4.49;100.00;102737.34;10038294;28;20048;-67
2022/01/28 19:56:01;;;;;;;18.58;3.42;;;;;;;4.53;100.00;102737.75;10048657;28;20043;-67
2022/01/28 20:00:58;;;;;;;22.45;2.88;;;;;;;4.58;100.00;102746.00;10015584;29;20076;-71
2022/01/28 20:05:55;;;;;;;24.60;3.35;;;;;;;4.49;100.00;102741.94;10043624;28;20414;-67
2022/01/28 20:10:51;;;;;;;24.42;2.97;;;;;;;4.47;100.00;102749.47;10037404;29;20111;-66
2022/01/28 20:15:48;;;;;;;30.23;3.72;;;;;;;4.58;100.00;102746.00;10046469;28;20154;-67
2022/01/28 20:20:50;;;;;;;18.35;4.20;;;;;;;4.50;100.00;102735.47;10038646;28;20039;-67
2022/01/28 20:25:48;;;;;;;26.40;3.95;;;;;;;4.49;100.00;102733.81;10043869;28;20134;-67
2022/01/28 20:30:45;;;;;;;23.90;3.22;;;;;;;4.51;100.00;102729.81;10033467;29;20103;-67
2022/01/28 20:35:42;;;;;;;22.98;3.95;;;;;;;4.59;100.00;102732.22;10042826;28;20442;-67
2022/01/28 20:40:39;;;;;;;25.42;4.07;;;;;;;4.69;100.00;102715.44;10037210;29;20052;-67
2022/01/28 20:45:35;;;;;;;20.52;2.58;;;;;;;4.62;100.00;102710.09;10036083;28;20102;-67
2022/01/28 20:50:32;;;;;;;21.20;3.17;;;;;;;4.62;100.00;102684.88;10044811;28;20071;-67
2022/01/28 20:55:28;;;;;;;19.65;3.58;;;;;;;4.61;100.00;102675.09;10041236;28;20147;-67
2022/01/28 21:00:25;;;;;;;21.00;2.90;;;;;;;4.65;100.00;102665.47;10046294;28;20462;-67
2022/01/28 21:05:22;;;;;;;16.40;3.85;;;;;;;4.62;100.00;102650.50;10041283;28;20043;-66
2022/01/28 21:10:21;;;;;;;21.75;3.40;;;;;;;4.68;100.00;102643.31;10035319;28;20115;-66
2022/01/28 21:15:18;;;;;;;25.88;4.45;;;;;;;4.62;100.00;102634.22;10040833;28;20048;-66
2022/01/28 21:20:16;;;;;;;16.77;3.45;;;;;;;4.63;100.00;102625.03;10030060;29;20056;-66
2022/01/28 21:25:13;;;;;;;23.45;3.83;;;;;;;4.60;100.00;102624.69;10036859;29;20083;-66
2022/01/28 21:30:30;;;;;;;37.05;4.20;;;;;;;4.66;100.00;102612.91;10034801;29;20546;-68
2022/01/28 21:35:26;;;;;;;20.23;4.70;;;;;;;4.69;100.00;102607.03;10046771;28;20509;-66
2022/01/28 21:40:23;;;;;;;27.20;4.22;;;;;;;4.67;100.00;102609.16;10035589;29;20489;-67
2022/01/28 21:45:20;;;;;;;30.17;3.78;;;;;;;4.59;100.00;102595.91;10046605;28;20067;-68
2022/01/28 21:50:17;;;;;;;25.30;5.07;;;;;;;4.62;100.00;102581.94;10035126;29;20063;-68
2022/01/28 21:55:14;;;;;;;21.70;3.13;;;;;;;4.64;100.00;102582.50;10037999;28;20168;-68
2022/01/28 22:00:12;;;;;;;25.77;3.83;;;;;;;4.63;100.00;102567.31;10054398;29;20061;-68
2022/01/28 22:05:08;;;;;;;20.45;5.50;;;;;;;4.53;100.00;102553.53;10037766;28;20051;-67
2022/01/28 22:10:05;;;;;;;24.15;3.50;;;;;;;4.61;100.00;102558.59;10042594;29;20079;-69
2022/01/28 22:15:04;;;;;;;18.13;2.67;;;;;;;4.54;100.00;102550.56;10019233;28;20047;-67
2022/01/28 22:20:01;;;;;;;18.58;2.92;;;;;;;4.57;100.00;102543.84;10043372;29;20223;-67
2022/01/28 22:24:58;;;;;;;15.60;3.05;;;;;;;4.54;100.00;102512.63;10033551;29;20098;-67
2022/01/28 22:29:54;;;;;;;14.50;3.08;;;;;;;4.66;100.00;102482.84;10025325;28;20131;-67
2022/01/28 22:34:51;;;;;;;19.80;3.03;;;;;;;4.55;100.00;102468.25;10034594;29;20039;-67
2022/01/28 22:39:48;;;;;;;17.92;3.15;;;;;;;4.65;100.00;102475.78;10036846;28;20143;-68
2022/01/28 22:44:44;;;;;;;21.33;3.45;;;;;;;4.66;100.00;102449.50;10030077;28;20126;-68
2022/01/28 22:49:41;;;;;;;20.30;4.72;;;;;;;4.60;100.00;102429.63;10038504;28;20066;-68
2022/01/28 22:54:37;;;;;;;16.80;4.38;;;;;;;4.63;100.00;102421.00;10026146;29;20079;-68
2022/01/28 22:59:34;;;;;;;19.83;4.32;;;;;;;4.58;100.00;102410.88;10038946;28;20114;-67
2022/01/28 23:04:30;;;;;;;25.70;6.53;;;;;;;4.69;100.00;102417.38;10034978;29;20107;-68
2022/01/28 23:09:27;;;;;;;19.88;6.50;;;;;;;4.70;100.00;102407.34;10035718;28;20082;-68
2022/01/28 23:14:23;;;;;;;23.45;6.97;;;;;;;4.78;100.00;102410.53;10045297;29;20048;-68
2022/01/28 23:19:20;;;;;;;23.70;6.90;;;;;;;4.73;100.00;102396.84;10042376;29;20175;-68
2022/01/28 23:24:16;;;;;;;31.27;8.95;;;;;;;4.82;100.00;102400.00;10044307;29;20102;-68
2022/01/28 23:29:13;;;;;;;31.90;9.82;;;;;;;4.69;100.00;102392.97;10019812;28;20087;-68
2022/01/28 23:34:09;;;;;;;32.00;10.25;;;;;;;4.72;100.00;102368.09;10035122;29;20067;-68
2022/01/28 23:39:06;;;;;;;23.15;9.40;;;;;;;4.73;100.00;102353.47;10066955;29;20464;-68
2022/01/28 23:44:03;;;;;;;28.77;10.55;;;;;;;4.77;100.00;102359.25;10039133;28;20498;-68
2022/01/28 23:49:01;;;;;;;34.33;11.65;;;;;;;4.81;100.00;102331.44;10069079;29;20101;-68
2022/01/28 23:53:57;;;;;;;24.85;11.43;;;;;;;4.86;100.00;102319.88;10020877;28;20074;-68
2022/01/28 23:58:53;;;;;;;33.53;12.82;;;;;;;4.87;100.00;102315.28;10068188;28;20051;-68
